Time;durP1;ratioP1;P1;durP2;ratioP2;P2;SDS_P1;SDS_P2;PMS_P1;PMS_P2;Temp;Humidity;BMP_temperature;BMP_pressure;BME280_temperature;BME280_humidity;BME280_pressure;Samples;Min_cycle;Max_cycle;Signal;HPM_P1;HPM_P2
2024/02/05 00:00:43;;;;;;;12.95;5.50;;;11.30;99.90;;;;;;5026380;28;20470;-68
2024/02/05 00:03:09;;;;;;;10.25;5.55;;;11.30;99.90;;;;;;5032765;28;20059;-67
2024/02/05 00:05:36;;;;;;;10.45;4.97;;;11.30;99.90;;;;;;5031415;28;20032;-67
2024/02/05 00:08:03;;;;;;;12.73;5.68;;;11.30;99.90;;;;;;5010176;28;20118;-67
2024/02/05 00:10:29;;;;;;;15.10;5.33;;;11.20;99.90;;;;;;5027193;28;20065;-67
2024/02/05 00:12:55;;;;;;;11.95;5.30;;;11.20;99.90;;;;;;5021095;28;20064;-68
2024/02/05 00:15:20;;;;;;;8.70;4.95;;;11.20;99.90;;;;;;5009268;28;20053;-68
2024/02/05 00:17:46;;;;;;;10.80;5.65;;;11.30;99.90;;;;;;5030762;28;20057;-67
2024/02/05 00:20:12;;;;;;;13.02;4.93;;;11.30;99.90;;;;;;5009447;28;20052;-67
2024/02/05 00:22:38;;;;;;;14.85;5.35;;;11.20;99.90;;;;;;5009360;28;20033;-66
2024/02/05 00:25:05;;;;;;;11.35;5.22;;;11.20;99.90;;;;;;5027044;28;20033;-67
2024/02/05 00:27:31;;;;;;;9.38;5.25;;;11.20;99.90;;;;;;5027352;28;20526;-66
2024/02/05 00:29:56;;;;;;;10.40;5.13;;;11.20;99.90;;;;;;5027371;28;20033;-67
2024/02/05 00:32:22;;;;;;;9.48;4.85;;;11.20;99.90;;;;;;5025085;28;20017;-67
2024/02/05 00:34:48;;;;;;;9.52;4.97;;;11.20;99.90;;;;;;5025714;28;20026;-67
2024/02/05 00:37:13;;;;;;;11.35;4.57;;;11.20;99.90;;;;;;5024709;28;20084;-67
2024/02/05 00:39:39;;;;;;;8.07;4.93;;;11.20;99.90;;;;;;5023433;28;20068;-67
2024/02/05 00:42:04;;;;;;;10.20;6.25;;;11.20;99.90;;;;;;5027007;28;20128;-67
2024/02/05 00:44:30;;;;;;;8.65;4.70;;;11.20;99.90;;;;;;5028840;28;20114;-67
2024/02/05 00:46:56;;;;;;;13.35;5.15;;;11.20;99.90;;;;;;5011103;28;20050;-67
2024/02/05 00:49:21;;;;;;;9.70;5.18;;;11.20;99.90;;;;;;5022044;28;20041;-67
2024/02/05 00:51:47;;;;;;;7.20;4.40;;;11.20;99.90;;;;;;5029260;28;20044;-67
2024/02/05 00:54:12;;;;;;;7.47;4.35;;;11.20;99.90;;;;;;5006491;28;20499;-67
2024/02/05 00:56:38;;;;;;;9.20;4.35;;;11.20;99.90;;;;;;5011024;28;20052;-67
2024/02/05 00:59:07;;;;;;;7.90;4.22;;;11.20;99.90;;;;;;5020385;28;20148;-68
2024/02/05 01:01:35;;;;;;;8.15;4.18;;;11.20;99.90;;;;;;5036985;28;20030;-67
2024/02/05 01:04:00;;;;;;;5.68;3.80;;;11.20;99.90;;;;;;5029238;28;20029;-67
2024/02/05 01:06:26;;;;;;;8.95;3.92;;;11.20;99.90;;;;;;5022686;28;20051;-67
2024/02/05 01:08:52;;;;;;;5.32;3.83;;;11.20;99.90;;;;;;5024952;28;20037;-67
2024/02/05 01:11:17;;;;;;;4.75;3.20;;;11.20;99.90;;;;;;5027562;28;20039;-67
2024/02/05 01:13:43;;;;;;;9.52;3.70;;;11.20;99.90;;;;;;5025932;28;20418;-67
2024/02/05 01:16:09;;;;;;;11.05;4.00;;;11.20;99.90;;;;;;5007719;28;20021;-67
2024/02/05 01:18:36;;;;;;;4.78;3.55;;;11.20;99.90;;;;;;5020874;28;20625;-67
2024/02/05 01:21:03;;;;;;;7.05;3.60;;;11.20;99.90;;;;;;5007946;28;20030;-67
2024/02/05 01:23:29;;;;;;;10.40;3.63;;;11.10;99.90;;;;;;5025634;28;20496;-67
2024/02/05 01:25:55;;;;;;;5.30;3.08;;;11.20;99.90;;;;;;5025091;28;20104;-67
2024/02/05 01:28:21;;;;;;;6.22;3.78;;;11.20;99.90;;;;;;5012882;28;20124;-67
2024/02/05 01:30:46;;;;;;;6.00;3.38;;;11.20;99.90;;;;;;5023265;28;20028;-68
2024/02/05 01:33:12;;;;;;;5.63;3.58;;;11.20;99.90;;;;;;5025516;28;20037;-67
2024/02/05 01:35:41;;;;;;;4.93;3.42;;;11.20;99.90;;;;;;5025955;28;20047;-67
2024/02/05 01:38:06;;;;;;;6.38;3.53;;;11.10;99.90;;;;;;5025574;28;20030;-70
2024/02/05 01:40:34;;;;;;;4.75;3.25;;;11.10;99.90;;;;;;5020530;28;20033;-67
2024/02/05 01:43:00;;;;;;;5.72;3.20;;;11.10;99.90;;;;;;5014945;28;20037;-67
2024/02/05 01:45:26;;;;;;;5.22;3.40;;;11.20;99.90;;;;;;5021173;28;20052;-68
2024/02/05 01:47:52;;;;;;;14.48;3.97;;;11.10;99.90;;;;;;5022445;28;20033;-68
2024/02/05 01:50:19;;;;;;;6.88;4.20;;;11.10;99.90;;;;;;5025716;28;20053;-67
2024/02/05 01:52:48;;;;;;;4.95;3.65;;;11.10;99.90;;;;;;5005744;28;20057;-67
2024/02/05 01:55:16;;;;;;;10.18;4.05;;;11.20;99.90;;;;;;5026584;28;20031;-67
2024/02/05 01:57:42;;;;;;;;;;;11.10;99.90;;;;;;5023700;28;20045;-67
2024/02/05 02:00:11;;;;;;;7.45;3.70;;;11.10;99.90;;;;;;5021423;28;19925;-67
2024/02/05 02:02:38;;;;;;;;;;;11.10;99.90;;;;;;5026475;28;20120;-67
2024/02/05 02:05:04;;;;;;;8.85;3.85;;;11.10;99.90;;;;;;5028099;28;19909;-68
2024/02/05 02:07:30;;;;;;;7.28;3.92;;;11.20;99.90;;;;;;5029327;28;20096;-67
2024/02/05 02:09:56;;;;;;;9.60;4.18;;;11.10;99.90;;;;;;5039966;28;20037;-68
2024/02/05 02:12:22;;;;;;;9.10;4.82;;;11.10;99.90;;;;;;5025007;28;20485;-67
2024/02/05 02:14:48;;;;;;;6.40;3.75;;;11.10;99.90;;;;;;5027466;28;20596;-67
2024/02/05 02:17:15;;;;;;;8.98;4.45;;;11.10;99.90;;;;;;5031272;28;20021;-68
2024/02/05 02:19:46;;;;;;;8.07;3.88;;;11.10;99.90;;;;;;5024598;28;20391;-68
2024/02/05 02:22:42;;;;;;;5.65;3.75;;;11.10;99.90;;;;;;5027900;28;20094;-67
2024/02/05 02:25:08;;;;;;;10.52;4.30;;;11.10;99.90;;;;;;5019393;28;20033;-68
2024/02/05 02:27:34;;;;;;;12.85;4.90;;;11.10;99.90;;;;;;5026771;28;20521;-68
2024/02/05 02:30:00;;;;;;;11.68;4.88;;;11.10;99.90;;;;;;5026896;28;20044;-68
2024/02/05 02:32:42;;;;;;;8.18;4.10;;;11.10;99.90;;;;;;5028788;28;20065;-67
2024/02/05 02:35:16;;;;;;;7.75;3.75;;;11.10;99.90;;;;;;5024262;28;20438;-67
2024/02/05 02:37:50;;;;;;;13.68;4.88;;;11.10;99.90;;;;;;5010038;28;20750;-68
2024/02/05 02:40:19;;;;;;;13.07;5.20;;;11.10;99.90;;;;;;5028945;28;20045;-68
2024/02/05 02:42:46;;;;;;;12.48;6.18;;;11.10;99.90;;;;;;5030229;28;20494;-68
2024/02/05 02:45:12;;;;;;;13.68;4.60;;;11.10;99.90;;;;;;5011255;28;20035;-68
2024/02/05 02:47:38;;;;;;;12.60;5.05;;;11.20;99.90;;;;;;5026500;28;20025;-68
2024/02/05 02:50:04;;;;;;;9.55;4.20;;;11.20;99.90;;;;;;5013422;28;20036;-68
2024/02/05 02:52:30;;;;;;;16.73;4.78;;;11.20;99.90;;;;;;5025992;28;20025;-68
2024/02/05 02:54:55;;;;;;;14.68;5.60;;;11.10;99.90;;;;;;5026072;28;20577;-69
2024/02/05 02:57:21;;;;;;;13.05;5.25;;;11.10;99.90;;;;;;5028948;28;20033;-68
2024/02/05 02:59:47;;;;;;;10.38;5.05;;;11.10;99.90;;;;;;5029111;28;20025;-69
2024/02/05 03:02:13;;;;;;;13.23;4.80;;;11.10;99.90;;;;;;5030587;28;20033;-68
2024/02/05 03:04:39;;;;;;;15.77;5.15;;;11.10;99.90;;;;;;5021349;28;20095;-68
2024/02/05 03:07:07;;;;;;;15.77;5.60;;;11.10;99.90;;;;;;5008062;28;20450;-68
2024/02/05 03:09:32;;;;;;;11.15;5.57;;;11.10;99.90;;;;;;5026142;28;20545;-68
2024/02/05 03:11:58;;;;;;;13.27;4.93;;;11.10;99.90;;;;;;5029805;28;20037;-68
2024/02/05 03:14:25;;;;;;;13.55;5.57;;;11.10;99.90;;;;;;5008905;28;20445;-68
2024/02/05 03:16:52;;;;;;;23.70;6.03;;;11.10;99.90;;;;;;5023720;28;20083;-68
2024/02/05 03:19:17;;;;;;;15.18;6.78;;;11.10;99.90;;;;;;5036368;28;20080;-68
2024/02/05 03:21:43;;;;;;;22.35;5.90;;;11.10;99.90;;;;;;5024583;28;20439;-68
2024/02/05 03:24:09;;;;;;;13.25;4.63;;;11.00;99.90;;;;;;5028240;28;20030;-68
2024/02/05 03:26:34;;;;;;;11.35;4.40;;;11.00;99.90;;;;;;5013410;28;20059;-68
2024/02/05 03:29:00;;;;;;;18.08;5.28;;;11.00;99.90;;;;;;5047414;28;20121;-68
2024/02/05 03:31:26;;;;;;;17.48;5.70;;;11.10;99.90;;;;;;5029014;28;20045;-68
2024/02/05 03:33:51;;;;;;;11.18;5.70;;;11.10;99.90;;;;;;5025897;28;20044;-68
2024/02/05 03:36:17;;;;;;;13.45;4.80;;;11.10;99.90;;;;;;5022567;28;20025;-68
2024/02/05 03:38:43;;;;;;;14.55;5.00;;;11.00;99.90;;;;;;5028546;28;20033;-68
2024/02/05 03:41:09;;;;;;;14.57;5.05;;;11.00;99.90;;;;;;5011184;28;20029;-68
2024/02/05 03:43:35;;;;;;;12.02;5.25;;;11.00;99.90;;;;;;5026188;28;20036;-68
2024/02/05 03:46:01;;;;;;;17.65;5.47;;;11.00;99.90;;;;;;5022882;28;20076;-68
2024/02/05 03:48:26;;;;;;;15.70;5.32;;;11.00;99.90;;;;;;5025451;28;20061;-68
2024/02/05 03:50:52;;;;;;;17.65;5.60;;;11.00;99.90;;;;;;5027552;28;20059;-68
2024/02/05 03:53:18;;;;;;;14.70;5.45;;;11.00;99.90;;;;;;5026346;28;20021;-68
2024/02/05 03:55:43;;;;;;;15.82;5.43;;;11.00;99.90;;;;;;5011487;28;20034;-68
2024/02/05 03:58:11;;;;;;;21.45;6.82;;;10.90;99.90;;;;;;5011276;28;20088;-68
2024/02/05 04:00:36;;;;;;;16.20;5.80;;;10.90;99.90;;;;;;5021641;28;20632;-68
2024/02/05 04:03:02;;;;;;;22.25;6.18;;;10.90;99.90;;;;;;5024896;28;20399;-68
2024/02/05 04:05:28;;;;;;;23.15;6.45;;;10.90;99.90;;;;;;5025735;28;20042;-68
2024/02/05 04:07:54;;;;;;;24.63;8.50;;;11.00;99.90;;;;;;5023833;28;20553;-68
2024/02/05 04:10:20;;;;;;;22.45;6.03;;;10.90;99.90;;;;;;5025627;28;20087;-68
2024/02/05 04:12:45;;;;;;;29.58;6.35;;;10.90;99.90;;;;;;5028254;28;20029;-68
2024/02/05 04:15:11;;;;;;;20.67;6.70;;;10.80;99.90;;;;;;5022402;28;20396;-68
2024/02/05 04:17:37;;;;;;;25.23;6.43;;;10.90;99.90;;;;;;5019118;28;20028;-68
2024/02/05 04:20:06;;;;;;;27.17;6.97;;;10.80;99.90;;;;;;5025695;28;20033;-68
2024/02/05 04:22:32;;;;;;;17.15;6.13;;;10.80;99.90;;;;;;5006538;28;20033;-68
2024/02/05 04:24:58;;;;;;;29.25;6.28;;;10.80;99.90;;;;;;5025076;28;20037;-68
2024/02/05 04:27:24;;;;;;;24.40;6.82;;;10.80;99.90;;;;;;5025829;28;20832;-68
2024/02/05 04:29:49;;;;;;;30.50;6.55;;;10.90;99.90;;;;;;5021698;28;20041;-68
2024/02/05 04:32:15;;;;;;;26.20;7.35;;;10.80;99.90;;;;;;5020942;28;20040;-68
2024/02/05 04:34:41;;;;;;;23.13;6.50;;;10.90;99.90;;;;;;5044073;28;20029;-68
2024/02/05 04:37:06;;;;;;;39.78;7.70;;;10.90;99.90;;;;;;5024482;28;20028;-68
2024/02/05 04:39:32;;;;;;;25.48;7.30;;;10.80;99.90;;;;;;5024793;28;20514;-68
2024/02/05 04:41:58;;;;;;;35.08;8.30;;;10.90;99.90;;;;;;5026495;28;20789;-68
2024/02/05 04:44:23;;;;;;;28.83;7.57;;;10.80;99.90;;;;;;5008390;28;20025;-68
2024/02/05 04:46:49;;;;;;;30.52;7.55;;;10.80;99.90;;;;;;5026308;28;20037;-68
2024/02/05 04:49:14;;;;;;;32.13;6.90;;;10.80;99.90;;;;;;5023696;28;20038;-68
2024/02/05 04:51:40;;;;;;;35.83;7.55;;;10.80;99.90;;;;;;5021751;28;20168;-68
2024/02/05 04:54:06;;;;;;;41.15;7.88;;;10.80;99.90;;;;;;5021647;28;20025;-68
2024/02/05 04:56:32;;;;;;;38.65;8.02;;;10.80;99.90;;;;;;5026429;28;20045;-68
2024/02/05 04:58:57;;;;;;;34.03;7.15;;;10.80;99.90;;;;;;5026777;28;20030;-68
2024/02/05 05:01:23;;;;;;;40.13;7.28;;;10.80;99.90;;;;;;5027179;28;20803;-69
2024/02/05 05:03:49;;;;;;;38.83;7.70;;;10.80;99.90;;;;;;5022394;28;20052;-68
2024/02/05 05:06:15;;;;;;;35.97;7.40;;;10.80;99.90;;;;;;5023942;28;20487;-69
2024/02/05 05:08:40;;;;;;;29.17;6.60;;;10.80;99.90;;;;;;5021070;28;20026;-69
2024/02/05 05:11:06;;;;;;;38.05;7.45;;;10.80;99.90;;;;;;5005689;28;20084;-68
2024/02/05 05:13:32;;;;;;;34.03;6.97;;;10.80;99.90;;;;;;5011370;28;20027;-69
2024/02/05 05:16:02;;;;;;;29.67;6.70;;;10.80;99.90;;;;;;5024269;28;20455;-69
2024/02/05 05:18:28;;;;;;;29.00;6.75;;;10.80;99.90;;;;;;5038690;28;20029;-68
2024/02/05 05:20:54;;;;;;;38.40;6.45;;;10.80;99.90;;;;;;5007207;28;20030;-68
2024/02/05 05:23:20;;;;;;;33.00;7.22;;;10.80;99.90;;;;;;5023376;28;20034;-69
2024/02/05 05:25:45;;;;;;;35.17;8.52;;;10.80;99.90;;;;;;5024482;28;20018;-68
2024/02/05 05:28:11;;;;;;;36.38;6.70;;;10.80;99.90;;;;;;5024834;28;20111;-68
2024/02/05 05:30:36;;;;;;;42.70;7.65;;;10.80;99.90;;;;;;5009043;28;20036;-68
2024/02/05 05:33:02;;;;;;;32.88;6.53;;;10.80;99.90;;;;;;5007333;28;20033;-68
2024/02/05 05:35:28;;;;;;;37.50;7.10;;;10.80;99.90;;;;;;5012214;28;20027;-69
2024/02/05 05:37:53;;;;;;;36.90;7.38;;;10.80;99.90;;;;;;5024673;28;20033;-68
2024/02/05 05:40:19;;;;;;;42.75;6.68;;;10.80;99.90;;;;;;5028908;28;20021;-68
2024/02/05 05:42:44;;;;;;;28.67;5.72;;;10.80;99.90;;;;;;5013929;28;20029;-68
2024/02/05 05:45:10;;;;;;;42.90;6.55;;;10.90;99.90;;;;;;5026375;28;20557;-68
2024/02/05 05:47:37;;;;;;;20.38;5.88;;;10.90;99.90;;;;;;5009278;28;20072;-68
2024/02/05 05:50:03;;;;;;;25.55;5.93;;;10.80;99.90;;;;;;5025215;28;20125;-68
2024/02/05 05:52:30;;;;;;;34.10;5.70;;;10.90;99.90;;;;;;5046807;28;20049;-68
2024/02/05 05:54:56;;;;;;;39.45;7.32;;;10.90;99.90;;;;;;5021251;28;20076;-68
2024/02/05 05:57:21;;;;;;;45.85;6.10;;;10.90;99.90;;;;;;5027406;28;20466;-68
2024/02/05 05:59:47;;;;;;;37.58;8.15;;;10.90;99.90;;;;;;5015067;28;20022;-68
2024/02/05 06:02:13;;;;;;;27.35;5.50;;;10.90;99.90;;;;;;5006246;28;20033;-68
2024/02/05 06:04:39;;;;;;;48.78;6.18;;;10.90;99.90;;;;;;5023274;28;20025;-68
2024/02/05 06:07:06;;;;;;;39.67;6.78;;;10.90;99.90;;;;;;5012232;28;20033;-68
2024/02/05 06:09:32;;;;;;;29.83;6.32;;;10.90;99.90;;;;;;5028939;28;20544;-69
2024/02/05 06:11:58;;;;;;;29.30;5.95;;;10.90;99.90;;;;;;5021628;28;20037;-68
2024/02/05 06:14:23;;;;;;;33.72;6.63;;;10.90;99.90;;;;;;5028193;28;20418;-66
2024/02/05 06:16:49;;;;;;;37.55;6.43;;;10.90;99.90;;;;;;5031456;28;20087;-67
2024/02/05 06:19:15;;;;;;;29.67;6.28;;;10.90;99.90;;;;;;5011581;28;20683;-67
2024/02/05 06:21:40;;;;;;;36.63;6.57;;;10.90;99.90;;;;;;5025706;28;20030;-67
2024/02/05 06:24:06;;;;;;;27.48;5.28;;;10.90;99.90;;;;;;5010265;28;20030;-67
2024/02/05 06:26:32;;;;;;;35.42;6.88;;;10.90;99.90;;;;;;5023922;28;20150;-67
2024/02/05 06:28:57;;;;;;;41.17;6.40;;;10.90;99.90;;;;;;5023475;28;20029;-67
2024/02/05 06:31:23;;;;;;;39.80;7.07;;;10.90;99.90;;;;;;5027451;28;20046;-67
2024/02/05 06:33:49;;;;;;;37.58;6.07;;;10.90;99.90;;;;;;5021492;28;20025;-67
2024/02/05 06:36:14;;;;;;;28.20;6.05;;;10.90;99.90;;;;;;5026894;28;20025;-67
2024/02/05 06:38:40;;;;;;;38.58;6.47;;;10.90;99.90;;;;;;5020407;28;20037;-67
2024/02/05 06:41:07;;;;;;;28.95;5.72;;;10.90;99.90;;;;;;5025662;28;20418;-67
2024/02/05 06:43:33;;;;;;;40.28;6.28;;;10.90;99.90;;;;;;5033051;28;20035;-67
2024/02/05 06:45:59;;;;;;;29.95;5.78;;;10.90;99.90;;;;;;5012830;28;20029;-67
2024/02/05 06:48:25;;;;;;;31.55;5.90;;;11.00;99.90;;;;;;5027739;28;20041;-67
2024/02/05 06:50:51;;;;;;;32.30;6.38;;;10.90;99.90;;;;;;5026892;28;20052;-67
2024/02/05 06:53:17;;;;;;;42.70;6.90;;;10.90;99.90;;;;;;5011405;28;20499;-67
2024/02/05 06:55:43;;;;;;;30.38;5.65;;;10.90;99.90;;;;;;5038602;28;21033;-67
2024/02/05 06:58:12;;;;;;;35.40;6.20;;;10.90;99.90;;;;;;5028009;28;20029;-67
2024/02/05 07:00:38;;;;;;;32.30;6.47;;;10.90;99.90;;;;;;5009371;28;20038;-67
2024/02/05 07:03:04;;;;;;;30.25;6.30;;;10.90;99.90;;;;;;5012166;28;20041;-68
2024/02/05 07:05:30;;;;;;;29.17;6.03;;;10.90;99.90;;;;;;5039831;28;20030;-67
2024/02/05 07:07:56;;;;;;;32.35;5.97;;;10.90;99.90;;;;;;5018271;28;20041;-67
2024/02/05 07:10:21;;;;;;;43.17;8.23;;;10.90;99.90;;;;;;5008572;28;20111;-70
2024/02/05 07:12:47;;;;;;;32.17;6.95;;;10.90;99.90;;;;;;5004021;28;20057;-73
2024/02/05 07:15:13;;;;;;;28.67;6.47;;;10.80;99.90;;;;;;5023566;28;20048;-72
2024/02/05 07:17:38;;;;;;;42.80;6.75;;;10.80;99.90;;;;;;5028261;28;20506;-69
2024/02/05 07:20:05;;;;;;;34.42;6.38;;;10.90;99.90;;;;;;5026457;28;20025;-70
2024/02/05 07:22:31;;;;;;;38.35;6.60;;;10.80;99.90;;;;;;5024840;28;20029;-70
2024/02/05 07:24:57;;;;;;;34.05;6.57;;;10.90;99.90;;;;;;5008941;28;20134;-70
2024/02/05 07:27:25;;;;;;;40.95;7.03;;;10.80;99.90;;;;;;5026748;28;20083;-70
2024/02/05 07:29:51;;;;;;;28.98;7.28;;;10.80;99.90;;;;;;5025053;28;20030;-70
2024/02/05 07:32:17;;;;;;;36.17;6.35;;;10.80;99.90;;;;;;5008150;28;20120;-71
2024/02/05 07:34:42;;;;;;;35.72;6.90;;;10.80;99.90;;;;;;5023452;28;20057;-70
2024/02/05 07:37:08;;;;;;;26.73;6.18;;;10.80;99.90;;;;;;5022100;28;20029;-70
2024/02/05 07:39:34;;;;;;;37.35;6.57;;;10.80;99.90;;;;;;5023002;28;20473;-71
2024/02/05 07:42:00;;;;;;;36.53;6.90;;;10.80;99.90;;;;;;5025171;28;20034;-70
2024/02/05 07:44:26;;;;;;;36.10;6.07;;;10.80;99.90;;;;;;5026142;28;20048;-70
2024/02/05 07:46:52;;;;;;;33.65;6.32;;;10.80;99.90;;;;;;5008589;28;20038;-71
2024/02/05 07:49:19;;;;;;;35.50;5.88;;;10.80;99.90;;;;;;5023297;28;20083;-71
2024/02/05 07:51:46;;;;;;;34.50;6.38;;;10.80;99.90;;;;;;5025318;28;20078;-70
2024/02/05 07:54:12;;;;;;;40.97;5.82;;;10.80;99.90;;;;;;5023107;28;20040;-71
2024/02/05 07:56:42;;;;;;;36.03;6.18;;;10.80;99.90;;;;;;5021570;28;20116;-71
2024/02/05 07:59:11;;;;;;;36.17;6.20;;;10.80;99.90;;;;;;5023728;28;20104;-71
2024/02/05 08:01:38;;;;;;;29.73;5.75;;;10.80;99.90;;;;;;5022808;28;20109;-72
2024/02/05 08:04:04;;;;;;;33.33;5.93;;;10.80;99.90;;;;;;5023464;28;20029;-71
2024/02/05 08:06:30;;;;;;;37.08;7.43;;;10.80;99.90;;;;;;5021153;28;20021;-73
2024/02/05 08:08:56;;;;;;;31.33;6.47;;;10.70;99.90;;;;;;5022072;28;20033;-71
2024/02/05 08:11:24;;;;;;;36.72;5.40;;;10.80;99.90;;;;;;5019422;28;20064;-71
2024/02/05 08:13:50;;;;;;;40.58;6.18;;;10.70;99.90;;;;;;5020766;28;20029;-72
2024/02/05 08:16:16;;;;;;;27.95;6.55;;;10.70;99.90;;;;;;5015011;28;20617;-72
2024/02/05 08:18:41;;;;;;;33.45;6.63;;;10.70;99.90;;;;;;5021969;28;20551;-72
2024/02/05 08:21:07;;;;;;;25.73;6.03;;;10.70;99.90;;;;;;5022851;28;20029;-71
2024/02/05 08:23:33;;;;;;;28.27;5.10;;;10.70;99.90;;;;;;5008442;28;20124;-71
2024/02/05 08:25:58;;;;;;;35.40;5.85;;;10.70;99.90;;;;;;5017860;28;20152;-71
2024/02/05 08:28:24;;;;;;;36.58;6.50;;;10.70;99.90;;;;;;5023050;28;20041;-71
2024/02/05 08:30:49;;;;;;;33.33;5.03;;;10.70;99.90;;;;;;5022122;28;21122;-71
2024/02/05 08:33:15;;;;;;;43.58;6.05;;;10.70;99.90;;;;;;5020946;28;20025;-71
2024/02/05 08:35:41;;;;;;;37.33;5.72;;;10.70;99.90;;;;;;5020656;28;20082;-71
2024/02/05 08:38:08;;;;;;;28.42;5.63;;;10.70;99.90;;;;;;5020790;28;20023;-70
2024/02/05 08:40:34;;;;;;;31.33;5.90;;;10.70;99.90;;;;;;5024558;28;20064;-70
2024/02/05 08:43:00;;;;;;;34.25;6.00;;;10.70;99.90;;;;;;5022658;28;20044;-70
2024/02/05 08:45:27;;;;;;;30.95;6.30;;;10.70;99.90;;;;;;5027673;28;20037;-71
2024/02/05 08:47:52;;;;;;;32.55;5.93;;;10.70;99.90;;;;;;5020443;28;20036;-72
2024/02/05 08:50:19;;;;;;;37.90;5.43;;;10.70;99.90;;;;;;5019525;28;20026;-71
2024/02/05 08:52:46;;;;;;;29.67;6.03;;;10.70;99.90;;;;;;5020883;28;20033;-71
2024/02/05 08:55:12;;;;;;;39.88;6.93;;;10.70;99.90;;;;;;5006810;28;20038;-71
2024/02/05 08:57:39;;;;;;;45.03;7.07;;;10.70;99.90;;;;;;5023382;28;20073;-71
2024/02/05 09:00:09;;;;;;;31.25;5.70;;;10.70;99.90;;;;;;5022720;28;20025;-72
2024/02/05 09:02:35;;;;;;;28.95;6.55;;;10.70;99.90;;;;;;5022011;28;20078;-73
2024/02/05 09:05:01;;;;;;;31.77;5.57;;;10.70;99.90;;;;;;5018742;28;20033;-71
2024/02/05 09:07:27;;;;;;;31.77;5.93;;;10.70;99.90;;;;;;5040670;28;20041;-70
2024/02/05 09:09:54;;;;;;;30.02;5.60;;;10.70;99.90;;;;;;5027069;28;20034;-70
2024/02/05 09:12:20;;;;;;;28.87;5.17;;;10.70;99.90;;;;;;5030743;28;20518;-71
2024/02/05 09:14:46;;;;;;;30.80;5.18;;;10.80;99.90;;;;;;5025627;28;20271;-71
2024/02/05 09:17:11;;;;;;;22.70;5.03;;;10.80;99.90;;;;;;5028603;28;20103;-71
2024/02/05 09:19:37;;;;;;;40.08;5.43;;;10.80;99.90;;;;;;5025823;28;20021;-69
2024/02/05 09:22:03;;;;;;;33.20;5.45;;;10.80;99.90;;;;;;5043682;28;20025;-72
2024/02/05 09:24:28;;;;;;;29.38;6.20;;;10.80;99.90;;;;;;5025589;28;20030;-72
2024/02/05 09:26:54;;;;;;;35.72;6.15;;;10.80;99.90;;;;;;5011723;28;20084;-72
2024/02/05 09:29:21;;;;;;;29.35;5.03;;;10.80;99.90;;;;;;5026138;28;20035;-72
2024/02/05 09:31:47;;;;;;;33.50;5.97;;;10.80;99.90;;;;;;5007592;28;20037;-72
2024/02/05 09:34:14;;;;;;;22.50;5.57;;;10.80;99.90;;;;;;5024609;28;20424;-72
2024/02/05 09:36:40;;;;;;;34.38;6.00;;;10.80;99.90;;;;;;5024854;28;20403;-71
2024/02/05 09:39:05;;;;;;;28.65;5.88;;;10.80;99.90;;;;;;5027035;28;20034;-72
2024/02/05 09:41:34;;;;;;;33.58;6.10;;;10.80;99.90;;;;;;5027207;28;20061;-70
2024/02/05 09:44:01;;;;;;;38.30;5.80;;;10.80;99.90;;;;;;5022844;28;20415;-70
2024/02/05 09:46:30;;;;;;;30.08;6.05;;;10.80;99.90;;;;;;5024712;28;20036;-73
2024/02/05 09:48:58;;;;;;;30.92;6.35;;;10.80;99.90;;;;;;5018507;28;20037;-71
2024/02/05 09:51:27;;;;;;;33.25;5.45;;;10.80;99.90;;;;;;5026394;28;20029;-71
2024/02/05 09:53:53;;;;;;;25.92;5.85;;;10.80;99.90;;;;;;5025678;28;20036;-70
2024/02/05 09:56:20;;;;;;;26.67;5.43;;;10.80;99.90;;;;;;5023540;28;20045;-71
2024/02/05 09:58:46;;;;;;;29.05;5.60;;;10.80;99.90;;;;;;5027594;28;20026;-71
2024/02/05 10:01:13;;;;;;;34.85;5.72;;;10.80;99.90;;;;;;5008826;28;20029;-71
2024/02/05 10:03:40;;;;;;;33.07;5.77;;;10.80;99.90;;;;;;5019628;28;20049;-71
2024/02/05 10:06:08;;;;;;;33.25;6.35;;;10.80;99.90;;;;;;5024232;28;20029;-71
2024/02/05 10:08:36;;;;;;;33.13;5.53;;;10.80;99.90;;;;;;5024307;28;20032;-70
2024/02/05 10:11:03;;;;;;;27.60;6.10;;;10.80;99.90;;;;;;5025392;28;20570;-71
2024/02/05 10:13:30;;;;;;;35.87;6.07;;;10.80;99.90;;;;;;5026760;28;20048;-70
2024/02/05 10:15:55;;;;;;;31.52;6.03;;;10.70;99.90;;;;;;5025692;28;20037;-71
2024/02/05 10:18:21;;;;;;;31.45;5.18;;;10.80;99.90;;;;;;5031224;28;20032;-70
2024/02/05 10:20:47;;;;;;;26.23;5.78;;;10.80;99.90;;;;;;5027340;28;20060;-73
2024/02/05 10:23:12;;;;;;;34.78;5.43;;;10.80;99.90;;;;;;5026804;28;20038;-71
2024/02/05 10:25:39;;;;;;;27.90;6.25;;;10.80;99.90;;;;;;5025776;28;20029;-70
2024/02/05 10:28:06;;;;;;;29.15;5.72;;;10.80;99.90;;;;;;5022806;28;20432;-71
2024/02/05 10:30:32;;;;;;;31.05;5.97;;;10.80;99.90;;;;;;5024976;28;20040;-70
2024/02/05 10:32:59;;;;;;;25.48;5.35;;;10.80;99.90;;;;;;5024966;28;20033;-70
2024/02/05 10:35:25;;;;;;;27.33;5.50;;;10.80;99.90;;;;;;5029221;28;20553;-70
2024/02/05 10:37:50;;;;;;;30.27;4.97;;;10.80;99.90;;;;;;5015248;28;20622;-71
2024/02/05 10:40:16;;;;;;;21.73;5.38;;;10.80;99.90;;;;;;5025022;28;20475;-73
2024/02/05 10:42:42;;;;;;;26.50;5.05;;;10.80;99.90;;;;;;5022466;28;20045;-70
2024/02/05 10:45:09;;;;;;;25.45;4.75;;;10.80;99.90;;;;;;5027945;28;20033;-72
2024/02/05 10:47:36;;;;;;;28.85;5.25;;;10.80;99.90;;;;;;5026277;28;20032;-71
2024/02/05 10:50:03;;;;;;;27.25;5.35;;;10.80;99.90;;;;;;5023496;28;20022;-71
2024/02/05 10:52:29;;;;;;;25.23;5.17;;;10.80;99.90;;;;;;5006202;28;20037;-71
2024/02/05 10:54:59;;;;;;;30.60;5.10;;;10.80;99.90;;;;;;5026795;28;20029;-70
2024/02/05 10:57:26;;;;;;;23.67;5.53;;;10.80;99.90;;;;;;5025960;28;20025;-71
2024/02/05 10:59:52;;;;;;;34.20;7.35;;;10.80;99.90;;;;;;5022834;28;20025;-71
2024/02/05 11:02:32;;;;;;;35.22;5.82;;;10.80;99.90;;;;;;5022429;28;20334;-71
2024/02/05 11:05:02;;;;;;;28.63;5.05;;;10.80;99.90;;;;;;5011059;28;20068;-71
2024/02/05 11:07:33;;;;;;;26.80;5.15;;;10.80;99.90;;;;;;5025437;28;20048;-71
2024/02/05 11:10:01;;;;;;;34.80;5.85;;;10.80;99.90;;;;;;5024409;28;20033;-71
2024/02/05 11:12:31;;;;;;;25.95;5.13;;;10.80;99.90;;;;;;5022120;28;20041;-71
2024/02/05 11:15:09;;;;;;;34.30;5.95;;;10.80;99.90;;;;;;5028109;28;20483;-71
2024/02/05 11:17:38;;;;;;;26.92;4.97;;;10.80;99.90;;;;;;5042185;28;20033;-71
2024/02/05 11:20:08;;;;;;;26.30;5.18;;;10.80;99.90;;;;;;5006958;28;20033;-70
2024/02/05 11:22:37;;;;;;;37.20;5.68;;;10.80;99.90;;;;;;5024317;28;20695;-71
2024/02/05 11:25:04;;;;;;;31.10;5.30;;;10.80;99.90;;;;;;5008559;28;20622;-71
2024/02/05 11:27:31;;;;;;;25.60;5.22;;;10.80;99.90;;;;;;5029636;28;20037;-72
2024/02/05 11:29:56;;;;;;;25.20;5.43;;;10.80;99.90;;;;;;5025692;28;20038;-71
2024/02/05 11:32:35;;;;;;;30.55;6.15;;;10.80;99.90;;;;;;5026382;28;20032;-71
2024/02/05 11:35:01;;;;;;;24.88;5.60;;;10.80;99.90;;;;;;5007837;28;20030;-70
2024/02/05 11:37:29;;;;;;;34.47;5.80;;;10.90;99.90;;;;;;5024462;28;20037;-71
2024/02/05 11:39:56;;;;;;;29.95;5.50;;;10.80;99.90;;;;;;5024624;28;20021;-71
2024/02/05 11:42:22;;;;;;;31.97;6.73;;;10.80;99.90;;;;;;5022319;28;20032;-71
2024/02/05 11:44:48;;;;;;;24.88;5.13;;;10.80;99.90;;;;;;5019387;28;20037;-70
2024/02/05 11:47:14;;;;;;;25.23;4.63;;;10.80;99.90;;;;;;5007364;28;20314;-72
2024/02/05 11:49:40;;;;;;;31.50;5.75;;;10.80;99.90;;;;;;5008329;28;20052;-74
2024/02/05 11:52:06;;;;;;;31.45;4.88;;;10.80;99.90;;;;;;5020843;28;20068;-71
2024/02/05 11:54:32;;;;;;;40.55;6.80;;;10.80;99.90;;;;;;5020717;28;20662;-72
2024/02/05 11:56:58;;;;;;;30.25;5.80;;;10.80;99.90;;;;;;5025802;28;20029;-73
2024/02/05 11:59:24;;;;;;;32.05;4.97;;;10.80;99.90;;;;;;5025556;28;20034;-72
2024/02/05 12:01:51;;;;;;;29.83;5.30;;;10.90;99.90;;;;;;5026550;28;20059;-71
2024/02/05 12:04:17;;;;;;;35.13;5.28;;;10.80;99.90;;;;;;5025284;28;20064;-71
2024/02/05 12:06:43;;;;;;;19.77;4.97;;;10.80;99.90;;;;;;5008972;28;20480;-71
2024/02/05 12:09:14;;;;;;;32.70;5.15;;;10.90;99.90;;;;;;5028636;28;20072;-72
2024/02/05 12:11:39;;;;;;;34.53;5.53;;;10.80;99.90;;;;;;5008230;28;20519;-71
2024/02/05 12:14:10;;;;;;;25.45;4.95;;;10.90;99.90;;;;;;5009951;28;20032;-72
2024/02/05 12:16:37;;;;;;;32.33;5.00;;;10.90;99.90;;;;;;5024620;28;20126;-72
2024/02/05 12:19:03;;;;;;;19.45;4.55;;;10.90;99.90;;;;;;5023610;28;20056;-71
2024/02/05 12:21:31;;;;;;;27.23;5.13;;;10.90;99.90;;;;;;5022112;28;20048;-72
2024/02/05 12:23:58;;;;;;;31.33;5.25;;;10.90;99.90;;;;;;5020841;28;20498;-71
2024/02/05 12:26:24;;;;;;;21.00;5.38;;;10.90;99.90;;;;;;5042886;28;20522;-70
2024/02/05 12:28:51;;;;;;;32.00;5.80;;;10.90;99.90;;;;;;5025336;28;20496;-71
2024/02/05 12:31:23;;;;;;;25.70;5.65;;;11.00;99.90;;;;;;5024195;28;20045;-70
2024/02/05 12:33:56;;;;;;;32.25;4.70;;;11.00;99.90;;;;;;5006564;28;20033;-72